createdAt,value
2019-05-02T00:00:15.553Z,30.95
2019-05-02T00:02:45.065Z,36.00
2019-05-02T00:05:56.802Z,27.95
2019-05-02T00:09:03.945Z,29.40
2019-05-02T00:11:39.884Z,28.07
2019-05-02T00:14:08.610Z,29.15
2019-05-02T00:16:59.490Z,25.45
2019-05-02T00:19:56.278Z,28.32
2019-05-02T00:22:25.784Z,30.08
2019-05-02T00:25:32.776Z,28.73
2019-05-02T00:28:07.705Z,31.35
2019-05-02T00:30:38.098Z,32.03
2019-05-02T00:33:11.590Z,27.40
2019-05-02T00:35:46.047Z,34.80
2019-05-02T00:38:18.079Z,30.75
2019-05-02T00:40:51.340Z,29.02
2019-05-02T00:43:24.227Z,34.90
2019-05-02T00:45:55.061Z,29.52
2019-05-02T00:48:54.026Z,30.72
2019-05-02T00:51:43.585Z,32.48
2019-05-02T00:54:19.148Z,29.85
2019-05-02T00:56:48.713Z,35.48
2019-05-02T00:59:17.961Z,30.30
2019-05-02T01:02:07.234Z,33.30
2019-05-02T01:04:38.742Z,31.10
2019-05-02T01:07:09.973Z,32.95
2019-05-02T01:09:46.905Z,32.55
2019-05-02T01:12:25.733Z,33.15
2019-05-02T01:14:44.631Z,32.40
2019-05-02T01:17:13.938Z,31.90
2019-05-02T01:19:47.220Z,34.20
2019-05-02T01:22:15.930Z,33.70
2019-05-02T01:24:48.476Z,31.87
2019-05-02T01:27:46.076Z,39.42
2019-05-02T01:30:37.289Z,33.98
2019-05-02T01:33:19.386Z,32.45
2019-05-02T01:35:56.063Z,34.73
2019-05-02T01:38:45.013Z,36.85
2019-05-02T01:41:15.256Z,34.88
2019-05-02T01:43:46.968Z,33.30
2019-05-02T01:46:22.216Z,38.38
2019-05-02T01:48:48.887Z,36.85
2019-05-02T01:51:18.205Z,33.40
2019-05-02T01:53:50.981Z,36.05
2019-05-02T01:56:20.409Z,35.17
2019-05-02T01:58:52.951Z,38.90
2019-05-02T02:01:24.304Z,34.50
2019-05-02T02:03:54.342Z,40.67
2019-05-02T02:06:26.278Z,39.25
2019-05-02T02:08:56.723Z,41.77
2019-05-02T02:11:33.681Z,40.45
2019-05-02T02:14:01.521Z,39.42
2019-05-02T02:16:35.187Z,39.13
2019-05-02T02:19:12.959Z,43.00
2019-05-02T02:22:08.089Z,38.78
2019-05-02T02:24:43.056Z,37.35
2019-05-02T02:27:12.390Z,45.55
2019-05-02T02:29:43.989Z,40.83
2019-05-02T02:32:12.563Z,42.30
2019-05-02T02:34:43.462Z,39.58
2019-05-02T02:37:16.434Z,45.38
2019-05-02T02:42:40.118Z,44.55
2019-05-02T02:45:41.626Z,47.90
2019-05-02T02:51:48.717Z,47.95
2019-05-02T02:54:18.181Z,49.70
2019-05-02T02:56:49.315Z,50.70
2019-05-02T02:59:26.456Z,56.50
2019-05-02T03:01:51.777Z,52.43
2019-05-02T03:04:21.809Z,50.65
2019-05-02T03:06:55.650Z,52.20
2019-05-02T03:09:26.707Z,50.17
2019-05-02T03:12:16.844Z,56.23
2019-05-02T03:14:51.125Z,50.20
2019-05-02T03:17:26.033Z,49.45
2019-05-02T03:20:01.527Z,49.03
2019-05-02T03:22:25.452Z,52.98
2019-05-02T03:24:54.836Z,54.18
2019-05-02T03:27:29.757Z,62.25
2019-05-02T03:29:55.979Z,53.33
2019-05-02T03:32:34.432Z,54.98
2019-05-02T03:35:05.173Z,55.92
2019-05-02T03:37:44.710Z,58.58
2019-05-02T03:40:10.550Z,64.62
2019-05-02T03:46:54.330Z,62.60
2019-05-02T03:49:29.044Z,60.63
2019-05-02T03:52:05.863Z,58.48
2019-05-02T03:54:48.341Z,63.68
2019-05-02T03:57:12.217Z,65.85
2019-05-02T03:59:41.840Z,59.03
2019-05-02T04:02:14.268Z,65.55
2019-05-02T04:04:43.898Z,60.80
2019-05-02T04:07:13.724Z,55.52
2019-05-02T04:09:52.867Z,61.45
2019-05-02T04:12:23.291Z,60.52
2019-05-02T04:14:56.029Z,59.90
2019-05-02T04:17:28.695Z,64.55
2019-05-02T04:19:56.288Z,60.80
2019-05-02T04:22:26.126Z,60.12
2019-05-02T04:24:56.879Z,59.67
2019-05-02T04:27:27.972Z,60.67
2019-05-02T04:29:57.598Z,58.98
2019-05-02T04:32:28.123Z,60.23
2019-05-02T04:35:04.125Z,61.10
2019-05-02T04:37:40.957Z,63.02
2019-05-02T04:40:12.315Z,61.37
2019-05-02T04:42:41.375Z,64.20
2019-05-02T04:45:26.404Z,58.98
2019-05-02T04:48:03.896Z,60.92
2019-05-02T04:50:31.060Z,59.10
2019-05-02T04:53:01.627Z,58.35
2019-05-02T04:56:00.449Z,63.98
2019-05-02T04:58:27.591Z,57.65
2019-05-02T05:00:58.024Z,63.98
2019-05-02T05:03:29.219Z,60.52
2019-05-02T05:06:07.264Z,58.05
2019-05-02T05:08:38.719Z,59.67
2019-05-02T05:11:07.808Z,62.67
2019-05-02T05:13:38.528Z,59.40
2019-05-02T05:16:15.663Z,68.72
2019-05-02T05:18:49.351Z,61.35
2019-05-02T05:21:24.755Z,67.37
2019-05-02T05:24:15.557Z,67.65
2019-05-02T05:26:50.440Z,65.00
2019-05-02T05:29:23.662Z,68.15
2019-05-02T05:31:55.222Z,61.42
2019-05-02T05:34:28.505Z,71.80
2019-05-02T05:37:09.545Z,63.50
2019-05-02T05:39:48.871Z,56.92
2019-05-02T05:42:17.855Z,62.88
2019-05-02T05:44:52.160Z,58.58
2019-05-02T05:47:24.028Z,65.37
2019-05-02T05:49:57.556Z,59.27
2019-05-02T05:52:27.218Z,64.37
2019-05-02T05:55:00.649Z,59.93
2019-05-02T05:57:32.159Z,65.42
2019-05-02T06:00:03.907Z,58.75
2019-05-02T06:02:50.916Z,69.77
2019-05-02T06:05:09.356Z,60.95
2019-05-02T06:07:41.930Z,65.42
2019-05-02T06:10:10.635Z,63.83
2019-05-02T06:12:43.117Z,62.30
2019-05-02T06:15:13.500Z,63.73
2019-05-02T06:17:43.048Z,63.73
2019-05-02T06:20:15.262Z,58.38
2019-05-02T06:22:44.930Z,70.78
2019-05-02T06:25:15.984Z,63.78
2019-05-02T06:27:50.691Z,69.45
2019-05-02T06:30:27.154Z,60.30
2019-05-02T06:32:56.667Z,73.05
2019-05-02T06:35:26.328Z,59.08
2019-05-02T06:37:59.324Z,64.67
2019-05-02T06:40:31.694Z,74.92
2019-05-02T06:43:04.211Z,75.70
2019-05-02T06:45:37.630Z,66.47
2019-05-02T06:48:17.515Z,62.53
2019-05-02T06:50:45.284Z,63.92
2019-05-02T06:53:35.186Z,64.20
2019-05-02T06:56:07.910Z,72.82
2019-05-02T06:58:41.892Z,73.15
2019-05-02T07:01:09.806Z,67.25
2019-05-02T07:03:46.186Z,68.00
2019-05-02T07:06:15.717Z,63.05
2019-05-02T07:08:49.983Z,73.05
2019-05-02T07:11:20.575Z,66.75
2019-05-02T07:13:52.600Z,75.08
2019-05-02T07:16:44.228Z,71.80
2019-05-02T07:19:32.870Z,78.22
2019-05-02T07:22:04.462Z,73.67
2019-05-02T07:24:35.585Z,72.70
2019-05-02T07:27:08.526Z,73.62
2019-05-02T07:29:39.342Z,76.97
2019-05-02T07:32:09.637Z,74.17
2019-05-02T07:34:39.198Z,76.40
2019-05-02T07:37:12.606Z,77.35
2019-05-02T07:39:42.281Z,71.65
2019-05-02T07:42:17.126Z,75.22
2019-05-02T07:44:48.156Z,74.70
2019-05-02T07:47:17.900Z,71.20
2019-05-02T07:49:47.579Z,73.28
2019-05-02T07:52:18.992Z,78.92
2019-05-02T07:54:48.636Z,72.30
2019-05-02T07:57:25.218Z,77.10
2019-05-02T08:00:00.458Z,72.70
2019-05-02T08:02:27.281Z,71.72
2019-05-02T08:04:57.751Z,71.25
2019-05-02T08:07:34.149Z,72.53
2019-05-02T08:10:03.352Z,65.05
2019-05-02T08:12:33.003Z,68.28
2019-05-02T08:15:07.367Z,66.67
2019-05-02T08:17:37.005Z,65.32
2019-05-02T08:20:08.630Z,64.47
2019-05-02T08:22:38.348Z,70.70
2019-05-02T08:25:10.462Z,64.80
2019-05-02T08:27:54.417Z,63.50
2019-05-02T08:30:28.155Z,73.12
2019-05-02T08:32:58.381Z,74.77
2019-05-02T08:35:29.069Z,70.12
2019-05-02T08:38:03.915Z,69.90
2019-05-02T08:40:33.882Z,64.58
2019-05-02T08:43:09.269Z,64.85
2019-05-02T08:45:39.575Z,63.65
2019-05-02T08:48:11.865Z,68.20
2019-05-02T08:50:42.580Z,61.28
2019-05-02T08:53:14.232Z,70.62
2019-05-02T08:55:48.982Z,65.10
2019-05-02T08:58:18.445Z,63.48
2019-05-02T09:00:53.224Z,60.67
2019-05-02T09:03:24.465Z,65.95
2019-05-02T09:06:05.340Z,62.23
2019-05-02T09:08:27.442Z,57.48
2019-05-02T09:10:57.823Z,58.17
2019-05-02T09:13:29.518Z,61.83
2019-05-02T09:16:03.682Z,62.03
2019-05-02T09:18:38.246Z,63.45
2019-05-02T09:21:07.820Z,60.12
2019-05-02T09:24:08.297Z,60.45
2019-05-02T09:26:38.618Z,61.05
2019-05-02T09:29:08.432Z,55.55
2019-05-02T09:31:42.301Z,63.30
2019-05-02T09:34:11.764Z,60.98
2019-05-02T09:36:41.815Z,56.40
2019-05-02T09:39:14.903Z,53.80
2019-05-02T09:41:45.029Z,57.80
2019-05-02T09:44:18.724Z,59.48
2019-05-02T09:46:55.253Z,61.42
2019-05-02T09:49:22.154Z,56.02
2019-05-02T09:51:59.175Z,66.40
2019-05-02T09:54:24.657Z,63.65
2019-05-02T09:56:55.330Z,55.58
2019-05-02T09:59:33.259Z,49.95
2019-05-02T10:02:06.924Z,53.65
2019-05-02T10:04:41.470Z,54.65
2019-05-02T10:07:17.279Z,53.02
2019-05-02T10:09:47.064Z,48.50
2019-05-02T10:12:19.779Z,50.25
2019-05-02T10:15:03.696Z,49.23
2019-05-02T10:17:42.887Z,44.08
2019-05-02T10:20:17.150Z,49.00
2019-05-02T10:22:48.545Z,52.43
2019-05-02T10:25:23.164Z,47.90
2019-05-02T10:27:53.543Z,46.02
2019-05-02T10:30:25.342Z,47.60
2019-05-02T10:32:57.305Z,52.60
2019-05-02T10:35:36.685Z,51.68
2019-05-02T10:37:59.915Z,46.73
2019-05-02T10:40:32.159Z,47.08
2019-05-02T10:43:02.939Z,45.40
2019-05-02T10:45:33.140Z,48.63
2019-05-02T10:48:05.629Z,51.68
2019-05-02T10:50:42.253Z,50.10
2019-05-02T10:53:16.266Z,47.17
2019-05-02T10:55:46.030Z,46.23
2019-05-02T10:58:15.602Z,50.85
2019-05-02T11:00:46.342Z,50.00
2019-05-02T11:03:24.849Z,43.40
2019-05-02T11:06:03.010Z,50.43
2019-05-02T11:08:29.061Z,44.05
2019-05-02T11:11:02.342Z,39.40
2019-05-02T11:14:05.667Z,42.95
2019-05-02T11:16:49.743Z,44.67
2019-05-02T11:19:41.910Z,43.95
2019-05-02T11:22:12.155Z,40.48
2019-05-02T11:24:42.082Z,42.03
2019-05-02T11:27:12.816Z,40.95
2019-05-02T11:29:42.667Z,50.05
2019-05-02T11:32:22.036Z,44.30
2019-05-02T11:34:52.423Z,40.38
2019-05-02T11:37:22.622Z,38.30
2019-05-02T11:39:59.964Z,37.23
2019-05-02T11:42:28.063Z,34.95
2019-05-02T11:44:58.078Z,39.20
2019-05-02T11:47:27.812Z,36.45
2019-05-02T11:49:57.315Z,33.60
2019-05-02T11:52:32.981Z,37.98
2019-05-02T11:54:58.962Z,39.00
2019-05-02T11:57:31.181Z,39.05
2019-05-02T12:00:05.178Z,36.33
2019-05-02T12:02:58.217Z,33.95
2019-05-02T12:05:39.358Z,30.77
2019-05-02T12:08:09.602Z,31.00
2019-05-02T12:10:42.062Z,30.15
2019-05-02T12:13:15.769Z,34.53
2019-05-02T12:15:44.272Z,33.48
2019-05-02T12:18:16.202Z,35.03
2019-05-02T12:20:47.169Z,31.37
2019-05-02T12:23:19.175Z,31.60
2019-05-02T12:25:48.923Z,39.53
2019-05-02T12:28:22.782Z,31.33
2019-05-02T12:30:58.861Z,37.83
2019-05-02T12:33:32.570Z,33.92
2019-05-02T12:36:06.031Z,31.87
2019-05-02T12:38:36.359Z,42.80
2019-05-02T12:41:19.287Z,32.45
2019-05-02T12:43:41.431Z,33.88
2019-05-02T12:46:11.709Z,33.85
2019-05-02T12:48:42.245Z,37.20
2019-05-02T12:51:12.706Z,31.85
2019-05-02T12:53:43.080Z,31.65
2019-05-02T12:56:13.853Z,27.37
2019-05-02T12:58:43.483Z,38.25
2019-05-02T13:01:17.453Z,28.98
2019-05-02T13:03:59.719Z,30.55
2019-05-02T13:06:29.295Z,31.15
2019-05-02T13:09:04.938Z,30.72
2019-05-02T13:11:52.298Z,29.67
2019-05-02T13:14:26.602Z,32.13
2019-05-02T13:17:05.584Z,36.58
2019-05-02T13:19:38.157Z,36.68
2019-05-02T13:22:30.102Z,30.10
2019-05-02T13:25:02.755Z,28.95
2019-05-02T13:27:43.351Z,35.35
2019-05-02T13:30:09.826Z,28.23
2019-05-02T13:32:48.182Z,28.02
2019-05-02T13:35:24.477Z,31.62
2019-05-02T13:37:57.955Z,33.48
2019-05-02T13:40:32.185Z,34.98
2019-05-02T13:43:01.833Z,39.92
2019-05-02T13:46:02.863Z,36.42
2019-05-02T13:48:34.339Z,30.57
2019-05-02T13:51:04.539Z,33.10
2019-05-02T13:53:36.328Z,26.77
2019-05-02T13:56:46.310Z,31.42
2019-05-02T13:59:16.314Z,30.35
2019-05-02T14:01:47.296Z,29.85
2019-05-02T14:04:17.326Z,31.05
2019-05-02T14:06:46.905Z,31.97
2019-05-02T14:09:25.213Z,29.87
2019-05-02T14:12:02.968Z,28.92
2019-05-02T14:14:32.725Z,26.80
2019-05-02T14:17:04.873Z,30.45
2019-05-02T14:19:34.530Z,26.10
2019-05-02T14:22:04.200Z,26.42
2019-05-02T14:24:33.715Z,29.30
2019-05-02T14:27:07.147Z,25.48
2019-05-02T14:29:34.698Z,32.40
2019-05-02T14:32:05.961Z,28.23
2019-05-02T14:34:59.511Z,28.70
2019-05-02T14:37:29.075Z,33.50
2019-05-02T14:40:06.491Z,22.93
2019-05-02T14:42:36.028Z,25.97
2019-05-02T14:45:19.648Z,27.17
2019-05-02T14:47:38.576Z,20.35
2019-05-02T14:50:20.775Z,26.10
2019-05-02T14:52:42.197Z,22.45
2019-05-02T14:55:16.918Z,19.92
2019-05-02T14:57:44.007Z,19.30
2019-05-02T15:00:13.899Z,17.27
2019-05-02T15:02:48.775Z,19.35
2019-05-02T15:05:19.293Z,14.87
2019-05-02T15:07:46.340Z,15.50
2019-05-02T15:10:16.920Z,14.25
2019-05-02T15:12:46.225Z,22.55
2019-05-02T15:15:15.644Z,25.82
2019-05-02T15:17:44.873Z,18.75
2019-05-02T15:20:14.884Z,19.23
2019-05-02T15:22:45.504Z,19.00
2019-05-02T15:25:17.835Z,18.55
2019-05-02T15:27:50.044Z,21.15
2019-05-02T15:30:19.184Z,21.50
2019-05-02T15:32:59.501Z,23.27
2019-05-02T15:35:47.914Z,22.42
2019-05-02T15:38:24.799Z,27.32
2019-05-02T15:40:51.452Z,22.67
2019-05-02T15:43:19.402Z,25.72
2019-05-02T15:45:48.654Z,20.97
2019-05-02T15:48:22.552Z,22.52
2019-05-02T15:50:52.928Z,24.75
2019-05-02T15:53:39.138Z,23.40
2019-05-02T15:56:18.722Z,24.47
2019-05-02T15:58:38.266Z,23.52
2019-05-02T16:01:36.594Z,23.40
2019-05-02T16:04:05.991Z,25.62
2019-05-02T16:06:35.347Z,21.20
2019-05-02T16:09:07.168Z,20.02
2019-05-02T16:11:36.470Z,21.48
2019-05-02T16:14:05.901Z,20.32
2019-05-02T16:16:36.547Z,23.83
2019-05-02T16:19:06.206Z,23.55
2019-05-02T16:21:42.637Z,23.90
2019-05-02T16:24:23.261Z,26.02
2019-05-02T16:26:57.160Z,22.02
2019-05-02T16:29:28.836Z,21.82
2019-05-02T16:32:21.990Z,21.57
2019-05-02T16:34:57.126Z,22.70
2019-05-02T16:37:27.339Z,23.85
2019-05-02T16:39:57.717Z,26.00
2019-05-02T16:42:32.691Z,24.72
2019-05-02T16:45:03.126Z,20.37
2019-05-02T16:47:32.785Z,19.57
2019-05-02T16:50:03.642Z,19.05
2019-05-02T16:52:32.910Z,22.62
2019-05-02T16:55:02.896Z,22.55
2019-05-02T16:57:32.732Z,21.07
2019-05-02T17:00:06.177Z,20.20
2019-05-02T17:02:37.864Z,24.30
2019-05-02T17:05:09.543Z,20.70
2019-05-02T17:07:47.346Z,21.20
2019-05-02T17:10:25.033Z,20.65
2019-05-02T17:12:57.654Z,26.82
2019-05-02T17:15:36.257Z,26.37
2019-05-02T17:18:12.897Z,22.00
2019-05-02T17:20:37.719Z,22.70
2019-05-02T17:23:07.824Z,23.87
2019-05-02T17:25:37.404Z,25.25
2019-05-02T17:28:10.396Z,30.50
2019-05-02T17:30:42.527Z,30.70
2019-05-02T17:33:12.787Z,30.60
2019-05-02T17:35:49.606Z,23.47
2019-05-02T17:38:13.160Z,23.55
2019-05-02T17:40:42.739Z,24.32
2019-05-02T17:43:12.206Z,23.67
2019-05-02T17:45:41.567Z,25.35
2019-05-02T17:48:17.809Z,24.23
2019-05-02T17:51:19.658Z,24.40
2019-05-02T18:00:47.364Z,24.77
2019-05-02T18:03:18.437Z,26.90
2019-05-02T18:05:59.322Z,22.17
2019-05-02T18:08:28.587Z,22.75
2019-05-02T18:11:16.853Z,23.85
2019-05-02T18:13:59.303Z,22.62
2019-05-02T18:16:55.756Z,27.30
2019-05-02T18:19:25.825Z,24.67
2019-05-02T18:21:58.297Z,24.50
2019-05-02T18:24:26.345Z,22.02
2019-05-02T18:26:55.730Z,22.85
2019-05-02T18:29:45.579Z,25.88
2019-05-02T18:41:58.903Z,24.47
2019-05-02T18:44:37.378Z,24.92
2019-05-02T18:48:12.564Z,26.37
2019-05-02T18:54:51.759Z,22.30
2019-05-02T19:00:37.803Z,20.05
2019-05-02T19:03:07.430Z,19.27
2019-05-02T19:05:38.176Z,20.20
2019-05-02T19:08:08.689Z,17.30
2019-05-02T19:11:12.073Z,24.35
2019-05-02T19:13:44.437Z,19.77
2019-05-02T19:16:19.394Z,18.80
2019-05-02T19:19:12.530Z,18.30
2019-05-02T19:21:44.274Z,21.48
2019-05-02T19:24:14.498Z,21.80
2019-05-02T19:26:49.347Z,20.65
2019-05-02T19:29:24.034Z,24.37
2019-05-02T19:32:25.494Z,24.02
2019-05-02T19:34:53.151Z,22.60
2019-05-02T19:37:22.394Z,22.55
2019-05-02T19:39:52.872Z,27.45
2019-05-02T19:42:26.131Z,21.27
2019-05-02T19:44:53.108Z,24.18
2019-05-02T19:47:24.218Z,23.05
2019-05-02T19:50:06.709Z,23.70
2019-05-02T19:52:42.847Z,24.32
2019-05-02T19:55:32.130Z,24.95
2019-05-02T19:58:06.259Z,26.65
2019-05-02T20:00:36.536Z,22.77
2019-05-02T20:03:13.610Z,24.75
2019-05-02T20:05:42.653Z,21.35
2019-05-02T20:08:14.827Z,30.15
2019-05-02T20:10:44.718Z,28.32
2019-05-02T20:13:14.056Z,26.17
2019-05-02T20:15:48.551Z,25.35
2019-05-02T20:21:48.333Z,24.40
2019-05-02T20:24:19.392Z,30.60
2019-05-02T20:26:56.177Z,28.27
2019-05-02T20:29:27.161Z,29.10
2019-05-02T20:35:19.706Z,28.27
2019-05-02T20:37:49.043Z,24.65
2019-05-02T20:41:13.863Z,26.33
2019-05-02T20:43:44.966Z,24.02
2019-05-02T20:46:35.481Z,24.75
2019-05-02T20:49:06.133Z,28.75
2019-05-02T20:51:35.377Z,24.60
2019-05-02T20:54:05.618Z,27.73
2019-05-02T20:57:11.994Z,22.35
2019-05-02T20:59:41.790Z,27.93
2019-05-02T21:02:14.618Z,21.25
2019-05-02T21:04:46.395Z,24.80
2019-05-02T21:07:38.048Z,20.72
2019-05-02T21:10:13.074Z,24.15
2019-05-02T21:12:43.428Z,18.82
2019-05-02T21:15:14.033Z,20.88
2019-05-02T21:17:43.798Z,26.07
2019-05-02T21:20:16.136Z,23.25
2019-05-02T21:22:47.101Z,23.25
2019-05-02T21:25:16.460Z,26.68
2019-05-02T21:27:45.778Z,21.05
2019-05-02T21:30:17.049Z,25.40
2019-05-02T21:32:47.720Z,25.17
2019-05-02T21:35:17.030Z,28.12
2019-05-02T21:37:46.330Z,25.85
2019-05-02T21:40:15.917Z,19.80
2019-05-02T21:42:46.407Z,19.85
2019-05-02T21:45:17.439Z,23.45
2019-05-02T21:47:46.714Z,20.72
2019-05-02T21:50:47.963Z,23.00
2019-05-02T21:53:29.509Z,21.33
2019-05-02T21:56:09.170Z,19.75
2019-05-02T21:58:38.542Z,24.65
2019-05-02T22:01:13.472Z,27.10
2019-05-02T22:03:42.862Z,20.62
2019-05-02T22:06:12.630Z,22.55
2019-05-02T22:08:42.051Z,21.17
2019-05-02T22:11:14.315Z,24.00
2019-05-02T22:13:43.616Z,23.70
2019-05-02T22:16:13.102Z,21.27
2019-05-02T22:18:42.833Z,29.27
2019-05-02T22:21:12.358Z,23.45
2019-05-02T22:23:42.511Z,28.32
2019-05-02T22:26:12.701Z,25.72
2019-05-02T22:28:42.154Z,22.55
2019-05-02T22:31:12.301Z,29.50
2019-05-02T22:33:42.181Z,22.52
2019-05-02T22:36:12.690Z,22.00
2019-05-02T22:38:48.012Z,21.00
2019-05-02T22:41:18.779Z,25.02
2019-05-02T22:43:48.130Z,27.62
2019-05-02T22:46:36.452Z,25.37
2019-05-02T22:49:05.778Z,28.00
2019-05-02T22:51:35.162Z,21.02
2019-05-02T22:54:04.512Z,24.15
2019-05-02T22:56:33.752Z,21.00
2019-05-02T22:59:03.116Z,25.88
2019-05-02T23:01:32.565Z,21.97
2019-05-02T23:04:02.002Z,22.10
2019-05-02T23:06:31.350Z,20.08
2019-05-02T23:09:01.987Z,20.08
2019-05-02T23:11:33.001Z,22.40
2019-05-02T23:14:02.329Z,18.12
2019-05-02T23:16:32.252Z,19.15
2019-05-02T23:19:02.857Z,19.12
2019-05-02T23:21:32.671Z,22.13
2019-05-02T23:24:08.786Z,21.23
2019-05-02T23:26:51.835Z,17.80
2019-05-02T23:29:22.574Z,20.72
2019-05-02T23:31:52.039Z,18.07
2019-05-02T23:34:23.309Z,19.37
2019-05-02T23:36:52.421Z,24.65
2019-05-02T23:39:21.681Z,23.67
2019-05-02T23:41:52.498Z,18.45
2019-05-02T23:44:22.863Z,20.08
2019-05-02T23:46:52.336Z,21.20
2019-05-02T23:49:22.978Z,20.90
2019-05-02T23:51:52.580Z,23.07
2019-05-02T23:54:22.218Z,23.32
2019-05-02T23:56:51.562Z,24.10
2019-05-02T23:59:22.350Z,27.75
